sensor_id;sensor_type;location;lat;lon;timestamp;P1;durP1;ratioP1;P2;durP2;ratioP2
42726;SDS011;28372;56.832;60.658;2023-09-07T00:00:20;23.63;;;11.10;;
42726;SDS011;28372;56.832;60.658;2023-09-07T00:02:48;22.83;;;12.13;;
42726;SDS011;28372;56.832;60.658;2023-09-07T00:05:16;14.93;;;8.55;;
42726;SDS011;28372;56.832;60.658;2023-09-07T00:07:43;15.02;;;7.38;;
42726;SDS011;28372;56.832;60.658;2023-09-07T00:10:11;14.98;;;7.40;;
42726;SDS011;28372;56.832;60.658;2023-09-07T00:12:39;14.65;;;7.55;;
42726;SDS011;28372;56.832;60.658;2023-09-07T00:15:07;22.85;;;9.90;;
42726;SDS011;28372;56.832;60.658;2023-09-07T00:17:37;12.13;;;6.80;;
42726;SDS011;28372;56.832;60.658;2023-09-07T00:20:05;16.27;;;8.50;;
42726;SDS011;28372;56.832;60.658;2023-09-07T00:22:41;21.65;;;9.30;;
42726;SDS011;28372;56.832;60.658;2023-09-07T00:25:09;20.15;;;9.90;;
42726;SDS011;28372;56.832;60.658;2023-09-07T00:27:36;22.70;;;10.00;;
42726;SDS011;28372;56.832;60.658;2023-09-07T00:30:04;25.10;;;12.40;;
42726;SDS011;28372;56.832;60.658;2023-09-07T00:32:32;25.38;;;13.00;;
42726;SDS011;28372;56.832;60.658;2023-09-07T00:35:01;23.30;;;12.55;;
42726;SDS011;28372;56.832;60.658;2023-09-07T00:37:32;20.13;;;10.15;;
42726;SDS011;28372;56.832;60.658;2023-09-07T00:40:00;21.38;;;11.70;;
42726;SDS011;28372;56.832;60.658;2023-09-07T00:42:29;29.05;;;13.25;;
42726;SDS011;28372;56.832;60.658;2023-09-07T00:44:57;17.55;;;9.88;;
42726;SDS011;28372;56.832;60.658;2023-09-07T00:47:25;15.85;;;8.55;;
42726;SDS011;28372;56.832;60.658;2023-09-07T00:49:53;15.07;;;8.82;;
42726;SDS011;28372;56.832;60.658;2023-09-07T00:52:21;22.98;;;9.88;;
42726;SDS011;28372;56.832;60.658;2023-09-07T00:54:50;17.75;;;8.98;;
42726;SDS011;28372;56.832;60.658;2023-09-07T00:57:18;19.55;;;9.68;;
42726;SDS011;28372;56.832;60.658;2023-09-07T00:59:46;17.85;;;9.98;;
42726;SDS011;28372;56.832;60.658;2023-09-07T01:02:13;19.60;;;9.52;;
42726;SDS011;28372;56.832;60.658;2023-09-07T01:04:41;19.48;;;9.13;;
42726;SDS011;28372;56.832;60.658;2023-09-07T01:07:17;21.05;;;9.90;;
42726;SDS011;28372;56.832;60.658;2023-09-07T01:09:49;18.38;;;10.00;;
42726;SDS011;28372;56.832;60.658;2023-09-07T01:12:21;15.25;;;9.32;;
42726;SDS011;28372;56.832;60.658;2023-09-07T01:14:49;16.70;;;9.00;;
42726;SDS011;28372;56.832;60.658;2023-09-07T01:17:17;18.13;;;9.18;;
42726;SDS011;28372;56.832;60.658;2023-09-07T01:19:45;25.23;;;13.15;;
42726;SDS011;28372;56.832;60.658;2023-09-07T01:22:17;20.77;;;9.50;;
42726;SDS011;28372;56.832;60.658;2023-09-07T01:24:52;18.52;;;10.05;;
42726;SDS011;28372;56.832;60.658;2023-09-07T01:27:21;28.42;;;12.90;;
42726;SDS011;28372;56.832;60.658;2023-09-07T01:29:49;25.00;;;13.43;;
42726;SDS011;28372;56.832;60.658;2023-09-07T01:32:17;30.00;;;13.73;;
42726;SDS011;28372;56.832;60.658;2023-09-07T01:34:45;26.48;;;13.55;;
42726;SDS011;28372;56.832;60.658;2023-09-07T01:37:13;33.30;;;14.52;;
42726;SDS011;28372;56.832;60.658;2023-09-07T01:39:41;33.83;;;14.70;;
42726;SDS011;28372;56.832;60.658;2023-09-07T01:42:08;22.30;;;10.00;;
42726;SDS011;28372;56.832;60.658;2023-09-07T01:44:36;23.80;;;12.25;;
42726;SDS011;28372;56.832;60.658;2023-09-07T01:47:05;28.45;;;13.00;;
42726;SDS011;28372;56.832;60.658;2023-09-07T01:49:33;20.52;;;9.88;;
42726;SDS011;28372;56.832;60.658;2023-09-07T01:52:01;22.40;;;12.48;;
42726;SDS011;28372;56.832;60.658;2023-09-07T01:54:29;30.73;;;12.95;;
42726;SDS011;28372;56.832;60.658;2023-09-07T01:56:58;22.15;;;11.23;;
42726;SDS011;28372;56.832;60.658;2023-09-07T01:59:26;33.55;;;16.42;;
42726;SDS011;28372;56.832;60.658;2023-09-07T02:01:54;28.50;;;13.52;;
42726;SDS011;28372;56.832;60.658;2023-09-07T02:04:21;27.98;;;12.38;;
42726;SDS011;28372;56.832;60.658;2023-09-07T02:06:49;28.05;;;11.68;;
42726;SDS011;28372;56.832;60.658;2023-09-07T02:09:17;31.38;;;12.98;;
42726;SDS011;28372;56.832;60.658;2023-09-07T02:11:44;28.98;;;12.95;;
42726;SDS011;28372;56.832;60.658;2023-09-07T02:14:12;26.25;;;12.65;;
42726;SDS011;28372;56.832;60.658;2023-09-07T02:16:40;26.88;;;12.32;;
42726;SDS011;28372;56.832;60.658;2023-09-07T02:19:09;30.45;;;12.23;;
42726;SDS011;28372;56.832;60.658;2023-09-07T02:21:37;36.65;;;12.98;;
42726;SDS011;28372;56.832;60.658;2023-09-07T02:24:05;30.75;;;12.80;;
42726;SDS011;28372;56.832;60.658;2023-09-07T02:26:34;38.25;;;12.50;;
42726;SDS011;28372;56.832;60.658;2023-09-07T02:29:02;26.23;;;11.30;;
42726;SDS011;28372;56.832;60.658;2023-09-07T02:31:34;26.67;;;11.02;;
42726;SDS011;28372;56.832;60.658;2023-09-07T02:34:01;26.40;;;11.38;;
42726;SDS011;28372;56.832;60.658;2023-09-07T02:36:32;17.67;;;9.13;;
42726;SDS011;28372;56.832;60.658;2023-09-07T02:39:01;23.52;;;9.40;;
42726;SDS011;28372;56.832;60.658;2023-09-07T02:41:30;18.15;;;8.05;;
42726;SDS011;28372;56.832;60.658;2023-09-07T02:43:58;15.15;;;7.10;;
42726;SDS011;28372;56.832;60.658;2023-09-07T02:46:26;17.73;;;7.68;;
42726;SDS011;28372;56.832;60.658;2023-09-07T02:48:54;20.80;;;9.32;;
42726;SDS011;28372;56.832;60.658;2023-09-07T02:51:25;17.73;;;7.72;;
42726;SDS011;28372;56.832;60.658;2023-09-07T02:53:55;17.17;;;7.25;;
42726;SDS011;28372;56.832;60.658;2023-09-07T02:56:24;17.15;;;7.32;;
42726;SDS011;28372;56.832;60.658;2023-09-07T02:58:53;14.02;;;7.15;;
42726;SDS011;28372;56.832;60.658;2023-09-07T03:01:20;15.73;;;6.85;;
42726;SDS011;28372;56.832;60.658;2023-09-07T03:03:49;19.17;;;7.45;;
42726;SDS011;28372;56.832;60.658;2023-09-07T03:06:18;14.80;;;6.97;;
42726;SDS011;28372;56.832;60.658;2023-09-07T03:08:50;13.57;;;6.78;;
42726;SDS011;28372;56.832;60.658;2023-09-07T03:11:19;14.25;;;6.93;;
42726;SDS011;28372;56.832;60.658;2023-09-07T03:13:48;13.65;;;7.43;;
42726;SDS011;28372;56.832;60.658;2023-09-07T03:16:17;14.75;;;6.82;;
42726;SDS011;28372;56.832;60.658;2023-09-07T03:18:44;16.17;;;7.15;;
42726;SDS011;28372;56.832;60.658;2023-09-07T03:21:12;23.05;;;10.52;;
42726;SDS011;28372;56.832;60.658;2023-09-07T03:23:40;25.05;;;14.50;;
42726;SDS011;28372;56.832;60.658;2023-09-07T03:28:41;33.55;;;19.83;;
42726;SDS011;28372;56.832;60.658;2023-09-07T03:31:08;33.13;;;19.77;;
42726;SDS011;28372;56.832;60.658;2023-09-07T03:33:36;32.22;;;19.20;;
42726;SDS011;28372;56.832;60.658;2023-09-07T03:36:04;34.95;;;19.58;;
42726;SDS011;28372;56.832;60.658;2023-09-07T03:38:32;32.75;;;19.38;;
42726;SDS011;28372;56.832;60.658;2023-09-07T03:41:00;31.52;;;18.83;;
42726;SDS011;28372;56.832;60.658;2023-09-07T03:43:28;29.45;;;18.25;;
42726;SDS011;28372;56.832;60.658;2023-09-07T03:45:57;31.98;;;17.05;;
42726;SDS011;28372;56.832;60.658;2023-09-07T03:48:25;33.25;;;17.67;;
42726;SDS011;28372;56.832;60.658;2023-09-07T03:50:53;29.55;;;17.85;;
42726;SDS011;28372;56.832;60.658;2023-09-07T03:53:20;27.60;;;17.77;;
42726;SDS011;28372;56.832;60.658;2023-09-07T03:55:48;29.35;;;17.58;;
42726;SDS011;28372;56.832;60.658;2023-09-07T03:58:17;27.25;;;15.98;;
42726;SDS011;28372;56.832;60.658;2023-09-07T04:00:45;27.73;;;16.20;;
42726;SDS011;28372;56.832;60.658;2023-09-07T04:03:13;32.13;;;16.55;;
42726;SDS011;28372;56.832;60.658;2023-09-07T04:05:42;31.50;;;15.50;;
42726;SDS011;28372;56.832;60.658;2023-09-07T04:08:11;37.40;;;16.00;;
42726;SDS011;28372;56.832;60.658;2023-09-07T04:10:39;32.30;;;17.27;;
42726;SDS011;28372;56.832;60.658;2023-09-07T04:13:06;33.53;;;15.82;;
42726;SDS011;28372;56.832;60.658;2023-09-07T04:15:41;35.22;;;16.75;;
42726;SDS011;28372;56.832;60.658;2023-09-07T04:18:13;32.50;;;16.17;;
42726;SDS011;28372;56.832;60.658;2023-09-07T04:20:43;32.42;;;15.82;;
42726;SDS011;28372;56.832;60.658;2023-09-07T04:23:12;32.40;;;15.48;;
42726;SDS011;28372;56.832;60.658;2023-09-07T04:25:40;30.65;;;15.25;;
42726;SDS011;28372;56.832;60.658;2023-09-07T04:28:08;33.95;;;15.27;;
42726;SDS011;28372;56.832;60.658;2023-09-07T04:30:39;31.58;;;14.55;;
42726;SDS011;28372;56.832;60.658;2023-09-07T04:33:07;26.25;;;13.18;;
42726;SDS011;28372;56.832;60.658;2023-09-07T04:35:37;23.20;;;13.02;;
42726;SDS011;28372;56.832;60.658;2023-09-07T04:38:06;26.23;;;12.27;;
42726;SDS011;28372;56.832;60.658;2023-09-07T04:40:34;21.42;;;9.98;;
42726;SDS011;28372;56.832;60.658;2023-09-07T04:43:02;21.05;;;10.38;;
42726;SDS011;28372;56.832;60.658;2023-09-07T04:45:30;21.95;;;10.15;;
42726;SDS011;28372;56.832;60.658;2023-09-07T04:47:58;20.48;;;10.07;;
42726;SDS011;28372;56.832;60.658;2023-09-07T04:50:26;17.00;;;9.18;;
42726;SDS011;28372;56.832;60.658;2023-09-07T04:52:54;19.98;;;9.20;;
42726;SDS011;28372;56.832;60.658;2023-09-07T04:55:22;17.90;;;8.60;;
42726;SDS011;28372;56.832;60.658;2023-09-07T04:57:50;16.45;;;7.55;;
42726;SDS011;28372;56.832;60.658;2023-09-07T05:00:17;17.20;;;6.97;;
42726;SDS011;28372;56.832;60.658;2023-09-07T05:02:47;14.48;;;6.90;;
42726;SDS011;28372;56.832;60.658;2023-09-07T05:05:15;10.90;;;6.45;;
42726;SDS011;28372;56.832;60.658;2023-09-07T05:07:43;14.85;;;6.45;;
42726;SDS011;28372;56.832;60.658;2023-09-07T05:10:10;14.98;;;5.72;;
42726;SDS011;28372;56.832;60.658;2023-09-07T05:12:40;11.18;;;5.55;;
42726;SDS011;28372;56.832;60.658;2023-09-07T05:15:08;11.20;;;5.32;;
42726;SDS011;28372;56.832;60.658;2023-09-07T05:17:36;11.10;;;5.07;;
42726;SDS011;28372;56.832;60.658;2023-09-07T05:20:05;14.85;;;4.75;;
42726;SDS011;28372;56.832;60.658;2023-09-07T05:22:34;8.15;;;4.85;;
42726;SDS011;28372;56.832;60.658;2023-09-07T05:25:05;11.00;;;4.00;;
42726;SDS011;28372;56.832;60.658;2023-09-07T05:27:33;9.50;;;4.10;;
42726;SDS011;28372;56.832;60.658;2023-09-07T05:30:02;7.65;;;3.60;;
42726;SDS011;28372;56.832;60.658;2023-09-07T05:32:31;6.28;;;3.30;;
42726;SDS011;28372;56.832;60.658;2023-09-07T05:34:58;7.53;;;3.50;;
42726;SDS011;28372;56.832;60.658;2023-09-07T05:37:29;7.72;;;3.50;;
42726;SDS011;28372;56.832;60.658;2023-09-07T05:39:57;7.90;;;3.42;;
42726;SDS011;28372;56.832;60.658;2023-09-07T05:42:24;7.30;;;3.30;;
42726;SDS011;28372;56.832;60.658;2023-09-07T05:44:53;9.93;;;4.07;;
42726;SDS011;28372;56.832;60.658;2023-09-07T05:47:22;7.65;;;3.35;;
42726;SDS011;28372;56.832;60.658;2023-09-07T05:49:53;8.38;;;3.50;;
42726;SDS011;28372;56.832;60.658;2023-09-07T05:52:21;7.13;;;3.22;;
42726;SDS011;28372;56.832;60.658;2023-09-07T05:54:49;8.25;;;3.50;;
42726;SDS011;28372;56.832;60.658;2023-09-07T05:57:17;7.20;;;3.67;;
42726;SDS011;28372;56.832;60.658;2023-09-07T05:59:45;12.32;;;3.95;;
42726;SDS011;28372;56.832;60.658;2023-09-07T06:02:12;9.65;;;4.03;;
42726;SDS011;28372;56.832;60.658;2023-09-07T06:04:40;8.65;;;4.55;;
42726;SDS011;28372;56.832;60.658;2023-09-07T06:07:09;9.27;;;3.70;;
42726;SDS011;28372;56.832;60.658;2023-09-07T06:09:36;9.30;;;4.10;;
42726;SDS011;28372;56.832;60.658;2023-09-07T06:12:04;7.15;;;3.03;;
42726;SDS011;28372;56.832;60.658;2023-09-07T06:14:32;10.98;;;4.22;;
42726;SDS011;28372;56.832;60.658;2023-09-07T06:17:00;8.27;;;3.72;;
42726;SDS011;28372;56.832;60.658;2023-09-07T06:19:28;9.20;;;3.90;;
42726;SDS011;28372;56.832;60.658;2023-09-07T06:21:55;7.55;;;3.88;;
42726;SDS011;28372;56.832;60.658;2023-09-07T06:24:23;8.95;;;3.40;;
42726;SDS011;28372;56.832;60.658;2023-09-07T06:26:51;6.32;;;3.17;;
42726;SDS011;28372;56.832;60.658;2023-09-07T06:29:18;5.72;;;3.25;;
42726;SDS011;28372;56.832;60.658;2023-09-07T06:31:46;8.07;;;3.60;;
42726;SDS011;28372;56.832;60.658;2023-09-07T06:34:17;9.10;;;3.38;;
42726;SDS011;28372;56.832;60.658;2023-09-07T06:36:45;6.95;;;3.20;;
42726;SDS011;28372;56.832;60.658;2023-09-07T06:39:18;5.20;;;3.25;;
42726;SDS011;28372;56.832;60.658;2023-09-07T06:41:46;5.20;;;2.83;;
42726;SDS011;28372;56.832;60.658;2023-09-07T06:44:17;8.10;;;3.00;;
42726;SDS011;28372;56.832;60.658;2023-09-07T06:46:45;4.78;;;2.13;;
42726;SDS011;28372;56.832;60.658;2023-09-07T06:49:13;6.68;;;2.55;;
42726;SDS011;28372;56.832;60.658;2023-09-07T06:51:41;7.53;;;2.90;;
42726;SDS011;28372;56.832;60.658;2023-09-07T06:54:10;6.35;;;2.53;;
42726;SDS011;28372;56.832;60.658;2023-09-07T06:56:41;4.90;;;2.25;;
42726;SDS011;28372;56.832;60.658;2023-09-07T06:59:08;3.83;;;2.25;;
42726;SDS011;28372;56.832;60.658;2023-09-07T07:01:36;4.07;;;2.10;;
42726;SDS011;28372;56.832;60.658;2023-09-07T07:04:05;5.68;;;2.50;;
42726;SDS011;28372;56.832;60.658;2023-09-07T07:06:33;4.15;;;2.20;;
42726;SDS011;28372;56.832;60.658;2023-09-07T07:09:01;4.10;;;2.22;;
42726;SDS011;28372;56.832;60.658;2023-09-07T07:11:29;4.30;;;2.30;;
42726;SDS011;28372;56.832;60.658;2023-09-07T07:13:57;4.60;;;2.20;;
42726;SDS011;28372;56.832;60.658;2023-09-07T07:16:25;5.20;;;2.00;;
42726;SDS011;28372;56.832;60.658;2023-09-07T07:18:53;4.85;;;2.30;;
42726;SDS011;28372;56.832;60.658;2023-09-07T07:21:21;5.70;;;2.10;;
42726;SDS011;28372;56.832;60.658;2023-09-07T07:23:48;4.68;;;2.60;;
42726;SDS011;28372;56.832;60.658;2023-09-07T07:26:16;5.65;;;2.33;;
42726;SDS011;28372;56.832;60.658;2023-09-07T07:28:44;6.28;;;2.70;;
42726;SDS011;28372;56.832;60.658;2023-09-07T07:31:12;4.75;;;2.22;;
42726;SDS011;28372;56.832;60.658;2023-09-07T07:33:43;5.30;;;2.45;;
42726;SDS011;28372;56.832;60.658;2023-09-07T07:36:12;5.55;;;2.35;;
42726;SDS011;28372;56.832;60.658;2023-09-07T07:38:40;4.25;;;2.28;;
42726;SDS011;28372;56.832;60.658;2023-09-07T07:41:08;6.05;;;2.17;;
42726;SDS011;28372;56.832;60.658;2023-09-07T07:43:36;7.15;;;2.80;;
42726;SDS011;28372;56.832;60.658;2023-09-07T07:46:04;5.38;;;2.70;;
42726;SDS011;28372;56.832;60.658;2023-09-07T07:48:33;3.90;;;2.40;;
42726;SDS011;28372;56.832;60.658;2023-09-07T07:51:04;3.92;;;2.40;;
42726;SDS011;28372;56.832;60.658;2023-09-07T07:56:04;4.25;;;2.30;;
42726;SDS011;28372;56.832;60.658;2023-09-07T07:58:32;4.15;;;2.20;;
42726;SDS011;28372;56.832;60.658;2023-09-07T08:01:01;8.57;;;3.00;;
42726;SDS011;28372;56.832;60.658;2023-09-07T08:03:31;4.78;;;2.53;;
42726;SDS011;28372;56.832;60.658;2023-09-07T08:06:01;4.82;;;2.35;;
42726;SDS011;28372;56.832;60.658;2023-09-07T08:08:28;6.15;;;2.65;;
42726;SDS011;28372;56.832;60.658;2023-09-07T08:10:57;6.22;;;3.15;;
42726;SDS011;28372;56.832;60.658;2023-09-07T08:13:29;6.47;;;3.15;;
42726;SDS011;28372;56.832;60.658;2023-09-07T08:15:58;8.23;;;3.15;;
42726;SDS011;28372;56.832;60.658;2023-09-07T08:18:26;5.15;;;3.10;;
42726;SDS011;28372;56.832;60.658;2023-09-07T08:20:54;5.95;;;2.30;;
42726;SDS011;28372;56.832;60.658;2023-09-07T08:23:22;6.05;;;2.80;;
42726;SDS011;28372;56.832;60.658;2023-09-07T08:25:51;5.30;;;2.88;;
42726;SDS011;28372;56.832;60.658;2023-09-07T08:28:21;5.75;;;2.42;;
42726;SDS011;28372;56.832;60.658;2023-09-07T08:30:50;4.32;;;2.28;;
42726;SDS011;28372;56.832;60.658;2023-09-07T08:33:22;5.93;;;2.42;;
42726;SDS011;28372;56.832;60.658;2023-09-07T08:35:56;5.78;;;2.75;;
42726;SDS011;28372;56.832;60.658;2023-09-07T08:38:24;6.07;;;2.72;;
42726;SDS011;28372;56.832;60.658;2023-09-07T08:40:56;4.63;;;2.40;;
42726;SDS011;28372;56.832;60.658;2023-09-07T08:43:28;3.55;;;2.25;;
42726;SDS011;28372;56.832;60.658;2023-09-07T08:48:55;6.22;;;2.40;;
42726;SDS011;28372;56.832;60.658;2023-09-07T08:53:57;6.95;;;3.08;;
42726;SDS011;28372;56.832;60.658;2023-09-07T08:56:25;5.20;;;2.20;;
42726;SDS011;28372;56.832;60.658;2023-09-07T08:58:53;3.53;;;2.10;;
42726;SDS011;28372;56.832;60.658;2023-09-07T09:01:21;6.15;;;3.13;;
42726;SDS011;28372;56.832;60.658;2023-09-07T09:03:49;5.38;;;2.33;;
42726;SDS011;28372;56.832;60.658;2023-09-07T09:06:18;3.88;;;2.50;;
42726;SDS011;28372;56.832;60.658;2023-09-07T09:08:48;3.60;;;2.15;;
42726;SDS011;28372;56.832;60.658;2023-09-07T09:11:18;4.85;;;2.30;;
42726;SDS011;28372;56.832;60.658;2023-09-07T09:13:46;5.25;;;2.53;;
42726;SDS011;28372;56.832;60.658;2023-09-07T09:16:15;3.50;;;2.13;;
42726;SDS011;28372;56.832;60.658;2023-09-07T09:18:47;6.13;;;2.70;;
42726;SDS011;28372;56.832;60.658;2023-09-07T09:21:16;6.57;;;2.83;;
42726;SDS011;28372;56.832;60.658;2023-09-07T09:23:44;6.95;;;2.80;;
42726;SDS011;28372;56.832;60.658;2023-09-07T09:26:12;6.85;;;2.70;;
42726;SDS011;28372;56.832;60.658;2023-09-07T09:28:40;5.65;;;2.90;;
42726;SDS011;28372;56.832;60.658;2023-09-07T09:31:09;5.32;;;2.97;;
42726;SDS011;28372;56.832;60.658;2023-09-07T09:33:40;5.55;;;2.97;;
42726;SDS011;28372;56.832;60.658;2023-09-07T09:36:08;6.18;;;3.10;;
42726;SDS011;28372;56.832;60.658;2023-09-07T09:38:36;7.57;;;3.60;;
42726;SDS011;28372;56.832;60.658;2023-09-07T09:41:04;5.03;;;2.90;;
42726;SDS011;28372;56.832;60.658;2023-09-07T09:43:33;6.72;;;3.05;;
42726;SDS011;28372;56.832;60.658;2023-09-07T09:46:01;5.03;;;2.85;;
42726;SDS011;28372;56.832;60.658;2023-09-07T09:48:34;4.50;;;2.80;;
42726;SDS011;28372;56.832;60.658;2023-09-07T09:51:04;9.27;;;3.35;;
42726;SDS011;28372;56.832;60.658;2023-09-07T09:53:32;5.32;;;3.00;;
42726;SDS011;28372;56.832;60.658;2023-09-07T09:56:00;4.63;;;3.00;;
42726;SDS011;28372;56.832;60.658;2023-09-07T09:58:28;7.32;;;3.20;;
42726;SDS011;28372;56.832;60.658;2023-09-07T10:00:57;4.93;;;2.80;;
42726;SDS011;28372;56.832;60.658;2023-09-07T10:03:32;5.13;;;3.05;;
42726;SDS011;28372;56.832;60.658;2023-09-07T10:06:08;5.20;;;2.80;;
42726;SDS011;28372;56.832;60.658;2023-09-07T10:09:05;7.03;;;3.58;;
42726;SDS011;28372;56.832;60.658;2023-09-07T10:11:34;8.65;;;3.53;;
42726;SDS011;28372;56.832;60.658;2023-09-07T10:14:07;5.10;;;2.92;;
42726;SDS011;28372;56.832;60.658;2023-09-07T10:16:42;6.50;;;3.03;;
42726;SDS011;28372;56.832;60.658;2023-09-07T10:19:19;6.28;;;2.95;;
42726;SDS011;28372;56.832;60.658;2023-09-07T10:21:53;6.20;;;3.20;;
42726;SDS011;28372;56.832;60.658;2023-09-07T10:24:30;7.35;;;3.38;;
42726;SDS011;28372;56.832;60.658;2023-09-07T10:27:04;6.18;;;3.47;;
42726;SDS011;28372;56.832;60.658;2023-09-07T10:29:45;6.72;;;3.20;;
42726;SDS011;28372;56.832;60.658;2023-09-07T10:32:23;6.75;;;3.42;;
42726;SDS011;28372;56.832;60.658;2023-09-07T10:34:50;6.97;;;3.47;;
42726;SDS011;28372;56.832;60.658;2023-09-07T10:37:18;7.72;;;3.58;;
42726;SDS011;28372;56.832;60.658;2023-09-07T10:39:46;6.05;;;3.17;;
42726;SDS011;28372;56.832;60.658;2023-09-07T10:42:23;5.28;;;3.10;;
42726;SDS011;28372;56.832;60.658;2023-09-07T10:44:52;7.50;;;3.28;;
42726;SDS011;28372;56.832;60.658;2023-09-07T10:47:20;8.10;;;4.05;;
42726;SDS011;28372;56.832;60.658;2023-09-07T10:49:49;6.22;;;3.65;;
42726;SDS011;28372;56.832;60.658;2023-09-07T10:52:16;8.93;;;4.03;;
42726;SDS011;28372;56.832;60.658;2023-09-07T10:54:44;6.78;;;4.00;;
42726;SDS011;28372;56.832;60.658;2023-09-07T10:57:22;7.28;;;3.78;;
42726;SDS011;28372;56.832;60.658;2023-09-07T10:59:50;8.52;;;3.75;;
42726;SDS011;28372;56.832;60.658;2023-09-07T11:02:22;9.35;;;3.80;;
42726;SDS011;28372;56.832;60.658;2023-09-07T11:04:50;12.57;;;3.95;;
42726;SDS011;28372;56.832;60.658;2023-09-07T11:07:17;8.93;;;3.60;;
42726;SDS011;28372;56.832;60.658;2023-09-07T11:09:45;5.40;;;3.30;;
42726;SDS011;28372;56.832;60.658;2023-09-07T11:12:13;10.20;;;4.35;;
42726;SDS011;28372;56.832;60.658;2023-09-07T11:14:46;9.10;;;3.67;;
42726;SDS011;28372;56.832;60.658;2023-09-07T11:17:15;9.45;;;4.40;;
42726;SDS011;28372;56.832;60.658;2023-09-07T11:19:43;10.45;;;4.35;;
42726;SDS011;28372;56.832;60.658;2023-09-07T11:22:11;7.43;;;4.47;;
42726;SDS011;28372;56.832;60.658;2023-09-07T11:24:39;8.65;;;4.03;;
42726;SDS011;28372;56.832;60.658;2023-09-07T11:27:08;8.00;;;4.20;;
42726;SDS011;28372;56.832;60.658;2023-09-07T11:29:36;9.77;;;4.38;;
42726;SDS011;28372;56.832;60.658;2023-09-07T11:34:49;6.13;;;3.90;;
42726;SDS011;28372;56.832;60.658;2023-09-07T11:37:18;7.28;;;3.92;;
42726;SDS011;28372;56.832;60.658;2023-09-07T11:39:52;7.97;;;4.10;;
42726;SDS011;28372;56.832;60.658;2023-09-07T11:42:19;7.47;;;4.55;;
42726;SDS011;28372;56.832;60.658;2023-09-07T11:44:48;8.02;;;4.18;;
42726;SDS011;28372;56.832;60.658;2023-09-07T11:47:15;8.23;;;4.05;;
42726;SDS011;28372;56.832;60.658;2023-09-07T11:49:43;8.52;;;4.63;;
42726;SDS011;28372;56.832;60.658;2023-09-07T11:52:11;8.07;;;4.22;;
42726;SDS011;28372;56.832;60.658;2023-09-07T11:54:38;7.53;;;4.28;;
42726;SDS011;28372;56.832;60.658;2023-09-07T11:57:06;8.32;;;4.07;;
42726;SDS011;28372;56.832;60.658;2023-09-07T11:59:34;14.05;;;4.82;;
42726;SDS011;28372;56.832;60.658;2023-09-07T12:02:18;8.27;;;3.95;;
42726;SDS011;28372;56.832;60.658;2023-09-07T12:04:48;7.60;;;4.35;;
42726;SDS011;28372;56.832;60.658;2023-09-07T12:07:16;8.75;;;4.55;;
42726;SDS011;28372;56.832;60.658;2023-09-07T12:09:44;8.68;;;4.55;;
42726;SDS011;28372;56.832;60.658;2023-09-07T12:12:11;7.72;;;4.47;;
42726;SDS011;28372;56.832;60.658;2023-09-07T12:14:39;7.68;;;4.57;;
42726;SDS011;28372;56.832;60.658;2023-09-07T12:17:06;7.07;;;4.10;;
42726;SDS011;28372;56.832;60.658;2023-09-07T12:19:34;8.55;;;4.40;;
42726;SDS011;28372;56.832;60.658;2023-09-07T12:22:02;8.25;;;4.55;;
42726;SDS011;28372;56.832;60.658;2023-09-07T12:24:30;7.35;;;4.18;;
42726;SDS011;28372;56.832;60.658;2023-09-07T12:26:58;10.10;;;4.72;;
42726;SDS011;28372;56.832;60.658;2023-09-07T12:29:26;8.90;;;4.63;;
42726;SDS011;28372;56.832;60.658;2023-09-07T12:31:55;7.43;;;5.00;;
42726;SDS011;28372;56.832;60.658;2023-09-07T12:34:24;7.97;;;4.75;;
42726;SDS011;28372;56.832;60.658;2023-09-07T12:36:52;11.68;;;5.07;;
42726;SDS011;28372;56.832;60.658;2023-09-07T12:39:20;8.55;;;5.05;;
42726;SDS011;28372;56.832;60.658;2023-09-07T12:41:48;7.28;;;4.93;;
42726;SDS011;28372;56.832;60.658;2023-09-07T12:44:15;9.15;;;4.78;;
42726;SDS011;28372;56.832;60.658;2023-09-07T12:46:45;8.43;;;4.72;;
42726;SDS011;28372;56.832;60.658;2023-09-07T12:49:12;8.95;;;5.22;;
42726;SDS011;28372;56.832;60.658;2023-09-07T12:51:42;10.25;;;5.38;;
42726;SDS011;28372;56.832;60.658;2023-09-07T12:54:10;10.07;;;5.30;;
42726;SDS011;28372;56.832;60.658;2023-09-07T12:56:37;11.27;;;5.30;;
42726;SDS011;28372;56.832;60.658;2023-09-07T12:59:05;11.90;;;5.40;;
42726;SDS011;28372;56.832;60.658;2023-09-07T13:01:32;12.07;;;5.35;;
42726;SDS011;28372;56.832;60.658;2023-09-07T13:04:01;11.15;;;5.55;;
42726;SDS011;28372;56.832;60.658;2023-09-07T13:06:30;9.90;;;5.10;;
42726;SDS011;28372;56.832;60.658;2023-09-07T13:08:57;12.65;;;5.35;;
42726;SDS011;28372;56.832;60.658;2023-09-07T13:11:25;11.25;;;5.50;;
42726;SDS011;28372;56.832;60.658;2023-09-07T13:13:53;8.95;;;5.35;;
42726;SDS011;28372;56.832;60.658;2023-09-07T13:16:39;9.63;;;5.15;;
42726;SDS011;28372;56.832;60.658;2023-09-07T13:19:06;9.98;;;5.40;;
42726;SDS011;28372;56.832;60.658;2023-09-07T13:21:34;10.00;;;5.38;;
42726;SDS011;28372;56.832;60.658;2023-09-07T13:24:02;8.88;;;5.07;;
42726;SDS011;28372;56.832;60.658;2023-09-07T13:26:30;12.55;;;5.25;;
42726;SDS011;28372;56.832;60.658;2023-09-07T13:28:58;7.63;;;5.50;;
42726;SDS011;28372;56.832;60.658;2023-09-07T13:31:26;9.57;;;5.00;;
42726;SDS011;28372;56.832;60.658;2023-09-07T13:33:53;13.07;;;4.78;;
42726;SDS011;28372;56.832;60.658;2023-09-07T13:36:21;10.00;;;5.05;;
42726;SDS011;28372;56.832;60.658;2023-09-07T13:38:49;8.32;;;4.72;;
42726;SDS011;28372;56.832;60.658;2023-09-07T13:41:19;12.23;;;4.97;;
42726;SDS011;28372;56.832;60.658;2023-09-07T13:43:46;7.82;;;4.93;;
42726;SDS011;28372;56.832;60.658;2023-09-07T13:46:14;11.35;;;5.20;;
42726;SDS011;28372;56.832;60.658;2023-09-07T13:48:42;9.98;;;5.20;;
42726;SDS011;28372;56.832;60.658;2023-09-07T13:51:09;8.57;;;5.13;;
42726;SDS011;28372;56.832;60.658;2023-09-07T13:53:37;11.77;;;7.15;;
42726;SDS011;28372;56.832;60.658;2023-09-07T13:56:05;9.80;;;6.47;;
42726;SDS011;28372;56.832;60.658;2023-09-07T13:58:33;9.98;;;5.30;;
42726;SDS011;28372;56.832;60.658;2023-09-07T14:01:01;9.85;;;4.78;;
42726;SDS011;28372;56.832;60.658;2023-09-07T14:03:28;9.38;;;5.43;;
42726;SDS011;28372;56.832;60.658;2023-09-07T14:05:57;13.20;;;5.85;;
42726;SDS011;28372;56.832;60.658;2023-09-07T14:08:24;16.63;;;5.43;;
42726;SDS011;28372;56.832;60.658;2023-09-07T14:10:52;13.07;;;5.68;;
42726;SDS011;28372;56.832;60.658;2023-09-07T14:13:20;10.77;;;6.03;;
42726;SDS011;28372;56.832;60.658;2023-09-07T14:15:48;15.38;;;6.85;;
42726;SDS011;28372;56.832;60.658;2023-09-07T14:18:16;13.90;;;6.30;;
42726;SDS011;28372;56.832;60.658;2023-09-07T14:20:45;17.75;;;6.70;;
42726;SDS011;28372;56.832;60.658;2023-09-07T14:23:13;14.70;;;7.13;;
42726;SDS011;28372;56.832;60.658;2023-09-07T14:25:40;16.25;;;6.90;;
42726;SDS011;28372;56.832;60.658;2023-09-07T14:28:09;14.07;;;7.53;;
42726;SDS011;28372;56.832;60.658;2023-09-07T14:30:37;14.48;;;7.38;;
42726;SDS011;28372;56.832;60.658;2023-09-07T14:33:04;15.73;;;7.72;;
42726;SDS011;28372;56.832;60.658;2023-09-07T14:35:32;17.92;;;8.13;;
42726;SDS011;28372;56.832;60.658;2023-09-07T14:38:00;15.95;;;7.35;;
42726;SDS011;28372;56.832;60.658;2023-09-07T14:40:28;14.00;;;7.30;;
42726;SDS011;28372;56.832;60.658;2023-09-07T14:42:57;16.38;;;7.30;;
42726;SDS011;28372;56.832;60.658;2023-09-07T14:45:27;14.23;;;7.30;;
42726;SDS011;28372;56.832;60.658;2023-09-07T14:47:56;14.32;;;6.82;;